createdAt,value
2023-05-09T00:01:10.949Z,102001.50
2023-05-09T00:03:12.802Z,102002.44
2023-05-09T00:05:15.158Z,101999.84
2023-05-09T00:07:17.312Z,102005.22
2023-05-09T00:09:19.013Z,102002.63
2023-05-09T00:11:22.142Z,101994.72
2023-05-09T00:13:24.423Z,102009.78
2023-05-09T00:15:26.036Z,101997.47
2023-05-09T00:17:28.613Z,102002.81
2023-05-09T00:19:30.195Z,101998.44
2023-05-09T00:21:31.751Z,101996.72
2023-05-09T00:23:33.222Z,101988.81
2023-05-09T00:25:34.710Z,101993.25
2023-05-09T00:27:36.437Z,101987.16
2023-05-09T00:29:37.959Z,101983.66
2023-05-09T00:31:39.458Z,101986.34
2023-05-09T00:33:40.950Z,101980.22
2023-05-09T00:35:42.453Z,101981.16
2023-05-09T00:37:43.972Z,101979.44
2023-05-09T00:39:46.171Z,101981.25
2023-05-09T00:41:47.672Z,101978.66
2023-05-09T00:43:49.138Z,101977.81
2023-05-09T00:45:50.834Z,101966.41
2023-05-09T00:47:52.714Z,101966.44
2023-05-09T00:49:54.695Z,101965.59
2023-05-09T00:51:56.962Z,101949.75
2023-05-09T00:53:58.764Z,101955.06
2023-05-09T00:56:00.497Z,101956.00
2023-05-09T00:58:03.741Z,101948.97
2023-05-09T01:00:06.216Z,101943.69
2023-05-09T01:02:07.692Z,101939.31
2023-05-09T01:04:09.697Z,101942.00
2023-05-09T01:06:11.133Z,101935.00
2023-05-09T01:09:11.949Z,101938.56
2023-05-09T01:11:26.662Z,101933.34
2023-05-09T01:13:36.306Z,101928.09
2023-05-09T01:15:54.662Z,101929.88
2023-05-09T01:18:14.671Z,101927.28
2023-05-09T01:20:25.155Z,101928.25
2023-05-09T01:22:31.895Z,101922.13
2023-05-09T01:24:57.381Z,101919.50
2023-05-09T01:27:39.220Z,101923.94
2023-05-09T01:29:47.166Z,101922.22
2023-05-09T01:31:49.629Z,101921.31
2023-05-09T01:33:56.476Z,101921.34
2023-05-09T01:36:09.513Z,101913.47
2023-05-09T01:38:17.263Z,101917.00
2023-05-09T01:40:21.420Z,101917.03
2023-05-09T01:42:25.972Z,101909.13
2023-05-09T01:44:35.393Z,101914.44
2023-05-09T01:46:38.025Z,101908.31
2023-05-09T01:48:41.136Z,101917.16
2023-05-09T01:50:44.482Z,101910.19
2023-05-09T01:52:49.353Z,101909.31
2023-05-09T01:54:51.498Z,101904.94
2023-05-09T01:56:55.600Z,101904.09
2023-05-09T01:58:58.622Z,101905.88
2023-05-09T02:01:00.997Z,101897.09
2023-05-09T02:03:04.303Z,101899.75
2023-05-09T02:05:06.683Z,101892.72
2023-05-09T02:07:08.694Z,101890.09
2023-05-09T02:09:11.361Z,101888.41
2023-05-09T02:11:13.067Z,101893.75
2023-05-09T02:13:14.824Z,101892.88
2023-05-09T02:15:16.857Z,101896.44
2023-05-09T02:17:19.290Z,101892.06
2023-05-09T02:19:20.762Z,101892.94
2023-05-09T02:21:22.439Z,101885.09
2023-05-09T02:23:23.887Z,101879.81
2023-05-09T02:25:25.546Z,101884.25
2023-05-09T02:27:27.703Z,101880.75
2023-05-09T02:29:40.033Z,101879.03
2023-05-09T02:31:43.230Z,101872.91
2023-05-09T02:33:47.845Z,101874.72
2023-05-09T02:35:50.031Z,101874.75
2023-05-09T02:37:52.197Z,101878.31
2023-05-09T02:39:55.014Z,101878.34
2023-05-09T02:41:56.797Z,101879.25
2023-05-09T02:43:58.257Z,101872.25
2023-05-09T02:45:59.731Z,101871.38
2023-05-09T02:48:01.288Z,101874.94
2023-05-09T02:50:02.838Z,101874.97
2023-05-09T02:52:04.769Z,101862.66
2023-05-09T02:54:06.415Z,101864.44
2023-05-09T02:56:08.810Z,101867.09
2023-05-09T02:58:14.778Z,101866.22
2023-05-09T03:00:18.022Z,101863.63
2023-05-09T03:02:19.581Z,101862.78
2023-05-09T03:04:21.138Z,101861.03
2023-05-09T03:06:22.595Z,101852.25
2023-05-09T03:08:24.074Z,101856.69
2023-05-09T03:10:25.616Z,101860.22
2023-05-09T03:12:27.076Z,101857.59
2023-05-09T03:14:28.537Z,101854.97
2023-05-09T03:16:30.279Z,101853.25
2023-05-09T03:18:31.842Z,101852.38
2023-05-09T03:20:33.317Z,101845.34
2023-05-09T03:22:34.760Z,101855.03
2023-05-09T03:24:36.935Z,101846.28
2023-05-09T03:26:38.499Z,101847.19
2023-05-09T03:28:40.564Z,101845.41
2023-05-09T03:30:42.015Z,101853.34
2023-05-09T03:32:43.548Z,101852.47
2023-05-09T03:34:45.022Z,101851.66
2023-05-09T03:36:46.551Z,101850.78
2023-05-09T03:38:48.070Z,101849.03
2023-05-09T03:40:50.056Z,101849.03
2023-05-09T03:42:51.586Z,101855.19
2023-05-09T03:44:53.164Z,101854.34
2023-05-09T03:46:54.689Z,101846.41
2023-05-09T03:48:56.223Z,101847.28
2023-05-09T03:50:57.765Z,101846.38
2023-05-09T03:52:59.413Z,101836.72
2023-05-09T03:55:00.905Z,101837.59
2023-05-09T03:57:02.418Z,101832.31
2023-05-09T03:59:03.885Z,101834.94
2023-05-09T04:01:05.769Z,101830.53
2023-05-09T04:03:07.460Z,101821.72
2023-05-09T04:05:09.174Z,101827.00
2023-05-09T04:07:10.810Z,101815.53
2023-05-09T04:09:12.303Z,101825.19
2023-05-09T04:11:13.891Z,101825.19
2023-05-09T04:13:15.465Z,101826.06
2023-05-09T04:15:17.533Z,101825.19
2023-05-09T04:17:19.045Z,101824.31
2023-05-09T04:19:20.614Z,101829.56
2023-05-09T04:21:22.134Z,101833.09
2023-05-09T04:23:23.932Z,101818.09
2023-05-09T04:25:26.019Z,101825.13
2023-05-09T04:27:28.161Z,101818.88
2023-05-09T04:29:29.653Z,101823.22
2023-05-09T04:31:31.664Z,101815.19
2023-05-09T04:33:33.243Z,101816.84
2023-05-09T04:35:34.745Z,101818.44
2023-05-09T04:37:36.205Z,101810.44
2023-05-09T04:39:37.657Z,101812.03
2023-05-09T04:41:39.138Z,101802.16
2023-05-09T04:43:40.614Z,101810.88
2023-05-09T04:45:42.101Z,101804.56
2023-05-09T04:47:44.049Z,101808.84
2023-05-09T04:49:45.546Z,101796.41
2023-05-09T04:51:47.001Z,101798.94
2023-05-09T04:53:48.494Z,101795.31
2023-05-09T04:55:49.972Z,101798.72
2023-05-09T04:57:51.398Z,101795.97
2023-05-09T04:59:53.109Z,101798.56
2023-05-09T05:01:54.674Z,101788.75
2023-05-09T05:03:56.297Z,101791.34
2023-05-09T05:05:58.382Z,101797.47
2023-05-09T05:07:59.857Z,101783.16
2023-05-09T05:10:01.387Z,101778.59
2023-05-09T05:12:04.929Z,101778.47
2023-05-09T05:14:07.510Z,101776.56
2023-05-09T05:16:09.135Z,101778.22
2023-05-09T05:18:10.713Z,101781.69
2023-05-09T05:20:12.401Z,101779.19
2023-05-09T05:22:13.837Z,101783.78
2023-05-09T05:24:15.289Z,101783.09
2023-05-09T05:26:16.727Z,101776.06
2023-05-09T05:28:19.680Z,101768.16
2023-05-09T05:30:21.278Z,101774.25
2023-05-09T05:32:22.778Z,101765.34
2023-05-09T05:34:24.209Z,101766.09
2023-05-09T05:36:25.846Z,101766.03
2023-05-09T05:38:27.295Z,101771.19
2023-05-09T05:40:28.769Z,101761.38
2023-05-09T05:42:30.782Z,101762.91
2023-05-09T05:44:32.237Z,101754.78
2023-05-09T05:46:33.696Z,101755.50
2023-05-09T05:48:35.240Z,101753.59
2023-05-09T05:50:36.745Z,101757.81
2023-05-09T05:52:39.744Z,101754.16
2023-05-09T05:54:41.458Z,101744.34
2023-05-09T05:56:43.164Z,101750.50
2023-05-09T05:58:44.634Z,101753.03
2023-05-09T06:00:46.557Z,101749.41
2023-05-09T06:02:48.259Z,101746.56
2023-05-09T06:04:49.860Z,101750.91
2023-05-09T06:06:51.389Z,101746.47
2023-05-09T06:08:52.848Z,101742.06
2023-05-09T06:10:54.320Z,101736.59
2023-05-09T06:12:55.891Z,101731.13
2023-05-09T06:14:57.447Z,101737.16
2023-05-09T06:16:59.748Z,101736.03
2023-05-09T06:19:01.320Z,101735.88
2023-05-09T06:21:02.930Z,101743.66
2023-05-09T06:23:04.532Z,101736.41
2023-05-09T06:25:08.616Z,101733.50
2023-05-09T06:27:11.737Z,101730.75
2023-05-09T06:29:15.171Z,101724.59
2023-05-09T06:31:16.742Z,101715.63
2023-05-09T06:33:18.239Z,101716.28
2023-05-09T06:35:19.698Z,101713.41
2023-05-09T06:37:21.302Z,101707.94
2023-05-09T06:39:22.800Z,101712.97
2023-05-09T06:41:24.285Z,101706.56
2023-05-09T06:43:26.388Z,101700.19
2023-05-09T06:45:28.011Z,101693.81
2023-05-09T06:47:29.495Z,101702.41
2023-05-09T06:49:31.083Z,101699.56
2023-05-09T06:51:32.751Z,101696.81
2023-05-09T06:53:34.378Z,101698.41
2023-05-09T06:55:36.167Z,101689.38
2023-05-09T06:57:39.486Z,101691.72
2023-05-09T06:59:40.953Z,101689.69
2023-05-09T07:01:42.568Z,101680.47
2023-05-09T07:03:44.436Z,101679.34
2023-05-09T07:05:45.987Z,101676.44
2023-05-09T07:07:47.513Z,101667.19
2023-05-09T07:09:50.850Z,101676.66
2023-05-09T07:11:57.653Z,101662.94
2023-05-09T07:13:59.137Z,101672.50
2023-05-09T07:16:00.697Z,101664.34
2023-05-09T07:18:02.283Z,101666.66
2023-05-09T07:20:04.906Z,101668.19
2023-05-09T07:22:06.397Z,101669.72
2023-05-09T07:24:07.933Z,101666.94
2023-05-09T07:26:09.395Z,101658.66
2023-05-09T07:28:12.673Z,101652.47
2023-05-09T07:30:14.648Z,101648.81
2023-05-09T07:32:16.309Z,101641.47
2023-05-09T07:34:19.854Z,101634.88
2023-05-09T07:36:21.366Z,101634.44
2023-05-09T07:38:22.918Z,101630.47
2023-05-09T07:40:24.348Z,101629.97
2023-05-09T07:42:26.428Z,101634.00
2023-05-09T07:44:27.945Z,101631.25
2023-05-09T07:46:29.454Z,101624.75
2023-05-09T07:48:31.013Z,101627.28
2023-05-09T07:50:32.535Z,101626.81
2023-05-09T07:52:34.129Z,101618.31
2023-05-09T07:54:35.580Z,101617.31
2023-05-09T07:56:37.095Z,101617.44
2023-05-09T07:58:38.578Z,101611.09
2023-05-09T08:00:40.750Z,101604.47
2023-05-09T08:02:42.345Z,101599.63
2023-05-09T08:04:43.970Z,101593.06
2023-05-09T08:06:45.476Z,101602.69
2023-05-09T08:08:47.017Z,101593.47
2023-05-09T08:10:48.541Z,101595.06
2023-05-09T08:12:50.078Z,101588.19
2023-05-09T08:14:51.584Z,101590.00
2023-05-09T08:16:53.124Z,101583.66
2023-05-09T08:18:54.968Z,101585.03
2023-05-09T08:20:56.645Z,101579.25
2023-05-09T08:22:58.255Z,101578.03
2023-05-09T08:24:59.823Z,101572.50
2023-05-09T08:27:01.491Z,101568.81
2023-05-09T08:29:02.997Z,101567.38
2023-05-09T08:31:04.533Z,101566.78
2023-05-09T08:33:06.154Z,101564.31
2023-05-09T08:35:09.012Z,101564.41
2023-05-09T08:37:11.501Z,101564.19
2023-05-09T08:39:14.332Z,101564.84
2023-05-09T08:41:16.393Z,101567.31
2023-05-09T08:43:19.264Z,101565.34
2023-05-09T08:45:27.526Z,101565.88
2023-05-09T08:47:29.818Z,101562.88
2023-05-09T08:49:31.747Z,101562.88
2023-05-09T08:51:33.462Z,101557.31
2023-05-09T08:53:34.968Z,101549.97
2023-05-09T08:55:37.293Z,101546.88
2023-05-09T08:57:38.756Z,101535.53
2023-05-09T08:59:42.154Z,101534.94
2023-05-09T09:01:43.817Z,101529.88
2023-05-09T09:03:49.375Z,101529.25
2023-05-09T09:05:53.264Z,101519.75
2023-05-09T09:07:55.444Z,101515.81
2023-05-09T09:09:58.750Z,101509.28
2023-05-09T09:12:00.913Z,101509.75
2023-05-09T09:14:10.084Z,101508.31
2023-05-09T09:16:19.839Z,101502.31
2023-05-09T09:18:24.041Z,101508.13
2023-05-09T09:20:31.400Z,101494.63
2023-05-09T09:22:34.938Z,101496.03
2023-05-09T09:24:36.744Z,101493.72
2023-05-09T09:26:46.609Z,101490.88
2023-05-09T09:28:48.101Z,101489.66
2023-05-09T09:30:49.787Z,101481.47
2023-05-09T09:32:51.290Z,101474.81
2023-05-09T09:35:06.975Z,101483.28
2023-05-09T09:37:08.435Z,101483.97
2023-05-09T09:39:13.237Z,101478.34
2023-05-09T09:41:15.287Z,101475.31
2023-05-09T09:43:16.756Z,101478.44
2023-05-09T09:45:20.328Z,101469.97
2023-05-09T09:47:31.588Z,101475.44
2023-05-09T09:49:33.059Z,101476.19
2023-05-09T09:51:35.602Z,101468.44
2023-05-09T09:53:41.398Z,101469.03
2023-05-09T09:55:50.797Z,101462.78
2023-05-09T09:57:52.417Z,101468.97
2023-05-09T10:00:00.767Z,101457.38
2023-05-09T10:02:07.507Z,101455.38
2023-05-09T10:04:16.468Z,101454.19
2023-05-09T10:06:18.237Z,101447.31
2023-05-09T10:08:19.902Z,101438.34
2023-05-09T10:10:21.894Z,101430.41
2023-05-09T10:12:23.512Z,101430.91
2023-05-09T10:14:26.284Z,101427.66
2023-05-09T10:16:42.589Z,101422.97
2023-05-09T10:18:45.200Z,101422.38
2023-05-09T10:20:47.291Z,101422.84
2023-05-09T10:22:50.456Z,101416.78
2023-05-09T10:25:06.419Z,101416.91
2023-05-09T10:27:11.732Z,101411.69
2023-05-09T10:29:22.755Z,101405.09
2023-05-09T10:31:27.290Z,101405.56
2023-05-09T10:33:46.756Z,101395.03
2023-05-09T10:35:49.731Z,101392.03
2023-05-09T10:37:55.209Z,101387.50
2023-05-09T10:39:57.057Z,101392.41
2023-05-09T10:41:59.222Z,101386.91
2023-05-09T10:44:00.869Z,101381.13
2023-05-09T10:46:06.361Z,101376.75
2023-05-09T10:48:09.278Z,101369.44
2023-05-09T10:50:15.658Z,101365.34
2023-05-09T10:52:17.380Z,101370.47
2023-05-09T10:54:31.004Z,101364.75
2023-05-09T10:56:36.207Z,101364.72
2023-05-09T10:58:39.112Z,101361.91
2023-05-09T11:00:42.383Z,101354.16
2023-05-09T11:03:07.939Z,101348.09
2023-05-09T11:05:19.651Z,101348.03
2023-05-09T11:07:25.739Z,101339.50
2023-05-09T11:09:33.200Z,101345.34
2023-05-09T11:11:50.755Z,101353.16
2023-05-09T11:13:57.942Z,101346.41
2023-05-09T11:15:59.452Z,101334.88
2023-05-09T11:18:09.371Z,101341.84
2023-05-09T11:20:10.941Z,101337.84
2023-05-09T11:22:14.212Z,101323.88
2023-05-09T11:24:18.974Z,101332.88
2023-05-09T11:26:23.429Z,101327.09
2023-05-09T11:28:36.519Z,101321.06
2023-05-09T11:30:43.362Z,101318.50
2023-05-09T11:32:46.323Z,101320.13
2023-05-09T11:34:49.780Z,101317.34
2023-05-09T11:36:51.447Z,101312.34
2023-05-09T11:39:07.702Z,101298.50
2023-05-09T11:41:09.393Z,101299.25
2023-05-09T11:43:11.005Z,101300.84
2023-05-09T11:45:13.617Z,101296.44
2023-05-09T11:47:16.449Z,101293.09
2023-05-09T11:49:19.579Z,101291.50
2023-05-09T11:51:21.198Z,101293.50
2023-05-09T11:53:23.049Z,101283.31
2023-05-09T11:55:30.086Z,101293.97
2023-05-09T11:57:32.369Z,101288.25
2023-05-09T11:59:38.393Z,101290.19
2023-05-09T12:01:39.968Z,101289.53
2023-05-09T12:03:45.140Z,101285.75
2023-05-09T12:05:48.531Z,101286.06
2023-05-09T12:07:50.768Z,101285.78
2023-05-09T12:09:52.369Z,101280.09
2023-05-09T12:11:53.837Z,101269.66
2023-05-09T12:13:55.409Z,101267.84
2023-05-09T12:16:03.188Z,101276.59
2023-05-09T12:18:06.697Z,101266.22
2023-05-09T12:20:09.376Z,101264.50
2023-05-09T12:22:11.215Z,101258.94
2023-05-09T12:24:12.684Z,101252.34
2023-05-09T12:26:14.595Z,101260.34
2023-05-09T12:28:16.830Z,101247.63
2023-05-09T12:30:18.691Z,101248.06
2023-05-09T12:32:20.819Z,101241.47
2023-05-09T12:34:23.082Z,101242.63
2023-05-09T12:36:24.642Z,101243.13
2023-05-09T12:38:26.097Z,101236.78
2023-05-09T12:40:27.856Z,101236.31
2023-05-09T12:42:29.810Z,101227.31
2023-05-09T12:44:31.433Z,101220.94
2023-05-09T12:46:33.508Z,101229.22
2023-05-09T12:48:38.684Z,101219.22
2023-05-09T12:50:40.749Z,101224.84
2023-05-09T12:53:02.161Z,101212.34
2023-05-09T12:55:14.251Z,101209.13
2023-05-09T12:57:23.336Z,101207.53
2023-05-09T12:59:27.007Z,101201.22
2023-05-09T13:01:29.603Z,101205.88
2023-05-09T13:03:37.770Z,101208.00
2023-05-09T13:05:39.348Z,101200.44
2023-05-09T13:07:43.118Z,101197.06
2023-05-09T13:09:56.999Z,101198.16
2023-05-09T13:11:58.615Z,101195.50
2023-05-09T13:14:00.375Z,101188.69
2023-05-09T13:16:03.812Z,101179.28
2023-05-09T13:18:05.563Z,101182.44
2023-05-09T13:20:08.559Z,101179.09
2023-05-09T13:22:12.133Z,101181.06
2023-05-09T13:24:13.832Z,101176.06
2023-05-09T13:26:15.966Z,101174.84
2023-05-09T13:28:17.530Z,101180.31
2023-05-09T13:30:19.562Z,101174.75
2023-05-09T13:32:21.311Z,101163.25
2023-05-09T13:34:22.867Z,101168.41
2023-05-09T13:36:24.405Z,101161.28
2023-05-09T13:38:25.951Z,101164.47
2023-05-09T13:40:27.398Z,101159.53
2023-05-09T13:42:28.993Z,101163.16
2023-05-09T13:44:30.680Z,101150.56
2023-05-09T13:46:32.285Z,101145.28
2023-05-09T13:48:33.816Z,101156.31
2023-05-09T13:50:35.257Z,101138.38
2023-05-09T13:52:36.747Z,101138.50
2023-05-09T13:54:38.277Z,101136.47
2023-05-09T13:56:39.817Z,101130.72
2023-05-09T13:58:41.362Z,101120.66
2023-05-09T14:00:42.890Z,101125.91
2023-05-09T14:02:44.345Z,101113.31
2023-05-09T14:04:45.911Z,101119.59
2023-05-09T14:06:48.296Z,101111.69
2023-05-09T14:08:49.895Z,101113.16
2023-05-09T14:10:51.425Z,101117.38
2023-05-09T14:12:53.498Z,101108.63
2023-05-09T14:14:54.983Z,101110.66
2023-05-09T14:16:57.145Z,101108.22
2023-05-09T14:18:58.643Z,101104.78
2023-05-09T14:21:00.109Z,101106.47
2023-05-09T14:23:01.649Z,101095.84
2023-05-09T14:25:03.229Z,101099.03
2023-05-09T14:27:04.762Z,101098.56
2023-05-09T14:29:06.784Z,101088.13
2023-05-09T14:31:08.225Z,101085.78
2023-05-09T14:33:09.754Z,101082.59
2023-05-09T14:35:11.344Z,101080.09
2023-05-09T14:37:15.780Z,101072.03
2023-05-09T14:39:17.350Z,101071.41
2023-05-09T14:41:20.895Z,101076.25
2023-05-09T14:43:22.973Z,101071.13
2023-05-09T14:45:25.119Z,101061.66
2023-05-09T14:47:26.797Z,101075.47
2023-05-09T14:49:28.633Z,101055.00
2023-05-09T14:51:31.729Z,101062.31
2023-05-09T14:53:35.487Z,101054.88
2023-05-09T14:55:37.231Z,101047.47
2023-05-09T14:57:38.663Z,101049.00
2023-05-09T14:59:40.152Z,101049.47
2023-05-09T15:01:41.834Z,101048.44
2023-05-09T15:03:43.472Z,101040.00
2023-05-09T15:05:45.066Z,101036.97
2023-05-09T15:07:46.538Z,101028.13
2023-05-09T15:09:47.986Z,101029.84
2023-05-09T15:11:49.590Z,101026.66
2023-05-09T15:13:53.284Z,101025.94
2023-05-09T15:15:54.743Z,101025.19
2023-05-09T15:17:56.260Z,101024.94
2023-05-09T15:19:57.726Z,101007.56
2023-05-09T15:21:59.938Z,101012.09
2023-05-09T15:24:02.470Z,101014.66
2023-05-09T15:26:04.177Z,101008.28
2023-05-09T15:28:06.898Z,101008.06
2023-05-09T15:30:09.972Z,101010.59
2023-05-09T15:32:11.480Z,101009.75
2023-05-09T15:34:13.044Z,101003.88
2023-05-09T15:36:14.582Z,100998.47
2023-05-09T15:38:16.113Z,101001.28
2023-05-09T15:40:17.777Z,100991.09
2023-05-09T15:42:19.531Z,100997.94
2023-05-09T15:44:20.988Z,100992.25
2023-05-09T15:46:22.551Z,100990.13
2023-05-09T15:48:24.805Z,100995.13
2023-05-09T15:50:26.711Z,100988.50
2023-05-09T15:52:28.242Z,100982.81
2023-05-09T15:54:31.746Z,100983.50
2023-05-09T15:56:33.305Z,100980.81
2023-05-09T15:58:35.122Z,100984.59
2023-05-09T16:00:37.535Z,100980.19
2023-05-09T16:02:39.263Z,100970.19
2023-05-09T16:04:42.403Z,100964.56
2023-05-09T16:06:44.548Z,100972.00
2023-05-09T16:08:46.455Z,100965.78
2023-05-09T16:10:49.090Z,100958.44
2023-05-09T16:12:50.751Z,100958.69
2023-05-09T16:14:52.319Z,100960.63
2023-05-09T16:16:53.879Z,100956.34
2023-05-09T16:18:55.560Z,100951.94
2023-05-09T16:20:57.070Z,100949.34
2023-05-09T16:22:58.556Z,100948.63
2023-05-09T16:25:00.035Z,100940.66
2023-05-09T16:27:01.493Z,100939.69
2023-05-09T16:29:03.072Z,100945.19
2023-05-09T16:31:05.075Z,100946.28
2023-05-09T16:33:06.649Z,100938.44
2023-05-09T16:35:08.609Z,100936.59
2023-05-09T16:37:10.162Z,100941.59
2023-05-09T16:39:11.735Z,100932.00
2023-05-09T16:41:13.218Z,100932.22
2023-05-09T16:43:16.396Z,100924.25
2023-05-09T16:45:17.872Z,100921.78
2023-05-09T16:47:19.359Z,100919.78
2023-05-09T16:49:21.018Z,100924.88
2023-05-09T16:51:22.496Z,100923.06
2023-05-09T16:53:25.420Z,100923.50
2023-05-09T16:55:28.715Z,100919.31
2023-05-09T16:57:30.161Z,100929.63
2023-05-09T16:59:32.798Z,100926.66
2023-05-09T17:01:34.348Z,100938.41
2023-05-09T17:03:35.838Z,100940.78
2023-05-09T17:05:37.284Z,100935.84
2023-05-09T17:07:38.731Z,100940.69
2023-05-09T17:09:40.345Z,100932.47
2023-05-09T17:11:41.789Z,100940.53
2023-05-09T17:13:44.058Z,100936.16
2023-05-09T17:15:45.636Z,100936.31
2023-05-09T17:17:47.423Z,100929.31
2023-05-09T17:19:48.905Z,100923.63
2023-05-09T17:21:50.683Z,100915.25
2023-05-09T17:23:53.907Z,100930.47
2023-05-09T17:25:55.361Z,100913.50
2023-05-09T17:27:56.874Z,100913.78
2023-05-09T17:29:58.515Z,100918.50
2023-05-09T17:32:02.957Z,100924.28
2023-05-09T17:34:05.515Z,100930.28
2023-05-09T17:36:07.425Z,100933.38
2023-05-09T17:38:08.980Z,100927.88
2023-05-09T17:40:10.735Z,100930.53
2023-05-09T17:42:12.818Z,100926.78
2023-05-09T17:44:14.505Z,100923.47
2023-05-09T17:46:16.063Z,100915.94
2023-05-09T17:48:18.210Z,100912.13
2023-05-09T17:50:20.764Z,100908.94
2023-05-09T17:52:22.288Z,100905.88
2023-05-09T17:54:24.570Z,100902.88
2023-05-09T17:56:26.916Z,100896.47
2023-05-09T17:58:28.408Z,100897.13
2023-05-09T18:00:30.041Z,100890.03
2023-05-09T18:02:31.590Z,100889.06
2023-05-09T18:04:34.360Z,100897.13
2023-05-09T18:06:36.365Z,100895.19
2023-05-09T18:08:38.009Z,100890.03
2023-05-09T18:10:40.891Z,100889.28
2023-05-09T18:12:45.092Z,100889.38
2023-05-09T18:14:46.686Z,100891.41
2023-05-09T18:16:48.239Z,100892.56
2023-05-09T18:18:49.790Z,100889.44
2023-05-09T18:20:51.274Z,100892.06
2023-05-09T18:22:54.201Z,100892.59
2023-05-09T18:24:55.736Z,100895.09
2023-05-09T18:26:57.552Z,100892.69
2023-05-09T18:28:59.064Z,100887.72
2023-05-09T18:31:01.375Z,100901.97
2023-05-09T18:33:04.066Z,100902.06
2023-05-09T18:35:06.459Z,100917.09
2023-05-09T18:37:07.981Z,100927.22
2023-05-09T18:39:11.745Z,100956.78
2023-05-09T18:41:13.803Z,100988.34
2023-05-09T18:43:16.912Z,100995.31
2023-05-09T18:45:18.618Z,100992.38
2023-05-09T18:47:20.082Z,100979.91
2023-05-09T18:49:22.537Z,100985.56
2023-05-09T18:51:25.228Z,100983.75
2023-05-09T18:53:26.785Z,100992.25
2023-05-09T18:55:28.281Z,100981.53
2023-05-09T18:57:29.802Z,100975.91
2023-05-09T18:59:31.828Z,100969.97
2023-05-09T19:01:33.351Z,100968.88
2023-05-09T19:03:34.801Z,100978.94
2023-05-09T19:05:36.262Z,100978.41
2023-05-09T19:07:38.595Z,100969.88
2023-05-09T19:09:40.243Z,100971.22
2023-05-09T19:11:41.873Z,100977.66
2023-05-09T19:13:48.565Z,100981.19
2023-05-09T19:15:50.360Z,100974.06
2023-05-09T19:17:51.962Z,100972.41
2023-05-09T19:19:53.706Z,100983.47
2023-05-09T19:21:55.199Z,100977.91
2023-05-09T19:23:56.777Z,100976.72
2023-05-09T19:25:58.260Z,100982.59
2023-05-09T19:28:00.037Z,100975.47
2023-05-09T19:30:01.850Z,100973.66
2023-05-09T19:32:03.401Z,100975.38
2023-05-09T19:34:05.140Z,100973.66
2023-05-09T19:36:06.863Z,100965.19
2023-05-09T19:38:08.951Z,100967.09
2023-05-09T19:40:11.353Z,100959.88
2023-05-09T19:42:12.907Z,100958.84
2023-05-09T19:44:14.367Z,100963.31
2023-05-09T19:46:16.615Z,100958.06
2023-05-09T19:48:18.228Z,100955.47
2023-05-09T19:50:19.729Z,100959.09
2023-05-09T19:52:21.446Z,100966.06
2023-05-09T19:54:27.049Z,100963.22
2023-05-09T19:56:28.489Z,100959.53
2023-05-09T19:58:29.909Z,100956.78
2023-05-09T20:00:32.254Z,100965.56
2023-05-09T20:02:34.144Z,100969.97
2023-05-09T20:04:36.541Z,100962.81
2023-05-09T20:06:38.067Z,100961.09
2023-05-09T20:08:39.494Z,100955.75
2023-05-09T20:10:40.973Z,100958.44
2023-05-09T20:12:42.521Z,100962.81
2023-05-09T20:14:44.392Z,100958.44
2023-05-09T20:16:46.045Z,100964.88
2023-05-09T20:18:48.726Z,100964.25
2023-05-09T20:20:51.578Z,100962.78
2023-05-09T20:22:53.116Z,100962.03
2023-05-09T20:24:54.567Z,100957.66
2023-05-09T20:26:56.154Z,100958.59
2023-05-09T20:29:01.466Z,100952.56
2023-05-09T20:31:03.348Z,100956.25
2023-05-09T20:33:04.959Z,100955.31
2023-05-09T20:35:07.360Z,100940.16
2023-05-09T20:37:08.985Z,100954.38
2023-05-09T20:39:11.816Z,100944.63
2023-05-09T20:41:13.452Z,100949.03
2023-05-09T20:43:15.144Z,100940.25
2023-05-09T20:45:16.736Z,100941.19
2023-05-09T20:47:18.400Z,100943.06
2023-05-09T20:49:19.930Z,100935.25
2023-05-09T20:51:21.378Z,100934.38
2023-05-09T20:53:26.397Z,100936.19
2023-05-09T20:55:27.880Z,100935.31
2023-05-09T20:57:29.343Z,100929.13
2023-05-09T20:59:30.844Z,100936.25
2023-05-09T21:01:36.545Z,100926.53
2023-05-09T21:03:38.133Z,100939.16
2023-05-09T21:05:39.706Z,100934.22
2023-05-09T21:07:41.211Z,100929.03
2023-05-09T21:09:42.734Z,100925.50
2023-05-09T21:11:45.688Z,100924.72
2023-05-09T21:13:47.140Z,100923.00
2023-05-09T21:15:50.486Z,100921.34
2023-05-09T21:17:51.998Z,100917.06
2023-05-09T21:19:53.681Z,100911.84
2023-05-09T21:21:55.312Z,100915.53
2023-05-09T21:23:56.988Z,100911.22
2023-05-09T21:25:58.426Z,100907.78
2023-05-09T21:27:59.899Z,100911.28
2023-05-09T21:30:01.420Z,100908.88
2023-05-09T21:32:02.921Z,100900.09
2023-05-09T21:34:09.869Z,100900.16
2023-05-09T21:36:11.780Z,100893.97
2023-05-09T21:38:13.871Z,100897.59
2023-05-09T21:40:15.611Z,100890.53
2023-05-09T21:42:17.286Z,100885.28
2023-05-09T21:44:18.760Z,100888.88
2023-05-09T21:46:20.266Z,100883.63
2023-05-09T21:48:21.801Z,100889.03
2023-05-09T21:50:23.551Z,100889.13
2023-05-09T21:52:25.062Z,100891.00
2023-05-09T21:54:26.506Z,100881.28
2023-05-09T21:56:28.020Z,100880.44
2023-05-09T21:58:29.485Z,100879.66
2023-05-09T22:00:30.992Z,100876.13
2023-05-09T22:02:34.045Z,100874.47
2023-05-09T22:04:35.588Z,100864.84
2023-05-09T22:06:37.193Z,100872.91
2023-05-09T22:08:38.857Z,100865.94
2023-05-09T22:10:40.786Z,100866.88
2023-05-09T22:12:42.300Z,100870.44
2023-05-09T22:14:55.320Z,100871.38
2023-05-09T22:16:57.993Z,100863.56
2023-05-09T22:18:59.590Z,100865.34
2023-05-09T22:21:01.264Z,100862.84
2023-05-09T22:23:02.813Z,100864.66
2023-05-09T22:25:05.038Z,100863.78
2023-05-09T22:27:06.835Z,100862.06
2023-05-09T22:29:08.369Z,100860.34
2023-05-09T22:31:10.527Z,100853.28
2023-05-09T22:33:12.070Z,100856.88
2023-05-09T22:35:13.674Z,100863.06
2023-05-09T22:37:15.243Z,100854.31
2023-05-09T22:39:16.702Z,100865.88
2023-05-09T22:41:18.212Z,100853.50
2023-05-09T22:43:20.357Z,100856.25
2023-05-09T22:45:22.284Z,100858.06
2023-05-09T22:47:23.769Z,100851.94
2023-05-09T22:49:25.281Z,100852.88
2023-05-09T22:51:27.755Z,100859.06
2023-05-09T22:53:29.456Z,100852.09
2023-05-09T22:55:30.950Z,100849.50
2023-05-09T22:57:32.448Z,100849.66
2023-05-09T22:59:34.420Z,100844.34
2023-05-09T23:01:35.946Z,100843.47
2023-05-09T23:03:37.457Z,100847.09
2023-05-09T23:05:38.996Z,100842.69
2023-05-09T23:07:40.519Z,100836.59
2023-05-09T23:09:42.010Z,100837.53
2023-05-09T23:11:43.536Z,100835.03
2023-05-09T23:13:44.995Z,100838.69
2023-05-09T23:15:49.226Z,100831.66
2023-05-09T23:17:50.762Z,100824.53
2023-05-09T23:19:52.241Z,100823.75
2023-05-09T23:21:53.886Z,100817.59